sensor_id;sensor_type;location;lat;lon;timestamp;P1;durP1;ratioP1;P2;durP2;ratioP2
11829;SDS011;5972;42.134;24.718;2023-04-25T00:01:02;3.80;;;2.10;;
11829;SDS011;5972;42.134;24.718;2023-04-25T00:03:29;2.65;;;2.10;;
11829;SDS011;5972;42.134;24.718;2023-04-25T00:05:56;3.28;;;2.53;;
11829;SDS011;5972;42.134;24.718;2023-04-25T00:08:24;4.05;;;2.38;;
11829;SDS011;5972;42.134;24.718;2023-04-25T00:10:51;3.13;;;2.80;;
11829;SDS011;5972;42.134;24.718;2023-04-25T00:13:19;4.22;;;3.17;;
11829;SDS011;5972;42.134;24.718;2023-04-25T00:15:46;3.95;;;2.88;;
11829;SDS011;5972;42.134;24.718;2023-04-25T00:18:13;2.83;;;2.63;;
11829;SDS011;5972;42.134;24.718;2023-04-25T00:20:39;2.75;;;2.55;;
11829;SDS011;5972;42.134;24.718;2023-04-25T00:23:09;2.75;;;2.55;;
11829;SDS011;5972;42.134;24.718;2023-04-25T00:25:36;4.07;;;2.20;;
11829;SDS011;5972;42.134;24.718;2023-04-25T00:28:02;2.95;;;2.33;;
11829;SDS011;5972;42.134;24.718;2023-04-25T00:30:30;3.30;;;2.60;;
11829;SDS011;5972;42.134;24.718;2023-04-25T00:32:56;2.35;;;2.15;;
11829;SDS011;5972;42.134;24.718;2023-04-25T00:35:23;2.38;;;2.17;;
11829;SDS011;5972;42.134;24.718;2023-04-25T00:37:49;2.13;;;2.03;;
11829;SDS011;5972;42.134;24.718;2023-04-25T00:40:16;2.50;;;2.30;;
11829;SDS011;5972;42.134;24.718;2023-04-25T00:42:42;3.80;;;2.38;;
11829;SDS011;5972;42.134;24.718;2023-04-25T00:45:09;2.80;;;2.60;;
11829;SDS011;5972;42.134;24.718;2023-04-25T00:47:40;2.55;;;2.35;;
11829;SDS011;5972;42.134;24.718;2023-04-25T00:50:07;2.88;;;2.67;;
11829;SDS011;5972;42.134;24.718;2023-04-25T00:52:34;2.90;;;2.35;;
11829;SDS011;5972;42.134;24.718;2023-04-25T00:55:00;3.15;;;2.40;;
11829;SDS011;5972;42.134;24.718;2023-04-25T00:57:27;3.05;;;2.63;;
11829;SDS011;5972;42.134;24.718;2023-04-25T00:59:53;3.05;;;2.50;;
11829;SDS011;5972;42.134;24.718;2023-04-25T01:02:20;3.33;;;2.30;;
11829;SDS011;5972;42.134;24.718;2023-04-25T01:04:48;2.80;;;2.47;;
11829;SDS011;5972;42.134;24.718;2023-04-25T01:07:15;2.78;;;2.58;;
11829;SDS011;5972;42.134;24.718;2023-04-25T01:09:41;2.60;;;2.38;;
11829;SDS011;5972;42.134;24.718;2023-04-25T01:12:08;4.35;;;2.75;;
11829;SDS011;5972;42.134;24.718;2023-04-25T01:14:34;3.63;;;2.35;;
11829;SDS011;5972;42.134;24.718;2023-04-25T01:17:01;3.20;;;2.13;;
11829;SDS011;5972;42.134;24.718;2023-04-25T01:19:27;6.68;;;2.40;;
11829;SDS011;5972;42.134;24.718;2023-04-25T01:21:55;3.25;;;2.92;;
11829;SDS011;5972;42.134;24.718;2023-04-25T01:24:22;3.55;;;2.75;;
11829;SDS011;5972;42.134;24.718;2023-04-25T01:26:48;3.38;;;3.08;;
11829;SDS011;5972;42.134;24.718;2023-04-25T01:29:16;3.75;;;3.45;;
11829;SDS011;5972;42.134;24.718;2023-04-25T01:31:42;4.13;;;3.72;;
11829;SDS011;5972;42.134;24.718;2023-04-25T01:34:09;3.53;;;3.28;;
11829;SDS011;5972;42.134;24.718;2023-04-25T01:36:35;4.75;;;3.72;;
11829;SDS011;5972;42.134;24.718;2023-04-25T01:39:03;4.28;;;3.88;;
11829;SDS011;5972;42.134;24.718;2023-04-25T01:41:30;4.07;;;3.78;;
11829;SDS011;5972;42.134;24.718;2023-04-25T01:43:57;3.95;;;3.65;;
11829;SDS011;5972;42.134;24.718;2023-04-25T01:46:23;4.20;;;3.90;;
11829;SDS011;5972;42.134;24.718;2023-04-25T01:48:50;4.35;;;3.95;;
11829;SDS011;5972;42.134;24.718;2023-04-25T01:51:16;4.90;;;4.50;;
11829;SDS011;5972;42.134;24.718;2023-04-25T01:53:43;5.30;;;4.90;;
11829;SDS011;5972;42.134;24.718;2023-04-25T01:56:11;6.60;;;4.85;;
11829;SDS011;5972;42.134;24.718;2023-04-25T01:58:37;5.55;;;5.05;;
11829;SDS011;5972;42.134;24.718;2023-04-25T02:01:04;5.68;;;4.90;;
11829;SDS011;5972;42.134;24.718;2023-04-25T02:03:31;6.10;;;5.50;;
11829;SDS011;5972;42.134;24.718;2023-04-25T02:05:57;5.30;;;4.82;;
11829;SDS011;5972;42.134;24.718;2023-04-25T02:08:24;4.68;;;4.28;;
11829;SDS011;5972;42.134;24.718;2023-04-25T02:10:51;4.10;;;3.78;;
11829;SDS011;5972;42.134;24.718;2023-04-25T02:13:19;6.28;;;3.70;;
11829;SDS011;5972;42.134;24.718;2023-04-25T02:15:46;4.50;;;4.10;;
11829;SDS011;5972;42.134;24.718;2023-04-25T02:18:12;4.50;;;4.10;;
11829;SDS011;5972;42.134;24.718;2023-04-25T02:20:41;4.53;;;4.13;;
11829;SDS011;5972;42.134;24.718;2023-04-25T02:23:07;4.63;;;4.22;;
11829;SDS011;5972;42.134;24.718;2023-04-25T02:25:34;6.10;;;4.85;;
11829;SDS011;5972;42.134;24.718;2023-04-25T02:28:00;5.28;;;4.57;;
11829;SDS011;5972;42.134;24.718;2023-04-25T02:30:28;5.15;;;4.57;;
11829;SDS011;5972;42.134;24.718;2023-04-25T02:32:55;4.70;;;4.18;;
11829;SDS011;5972;42.134;24.718;2023-04-25T02:35:21;4.35;;;4.05;;
11829;SDS011;5972;42.134;24.718;2023-04-25T02:37:48;5.45;;;4.95;;
11829;SDS011;5972;42.134;24.718;2023-04-25T02:40:14;4.88;;;4.32;;
11829;SDS011;5972;42.134;24.718;2023-04-25T02:42:41;5.20;;;4.65;;
11829;SDS011;5972;42.134;24.718;2023-04-25T02:45:08;5.45;;;4.88;;
11829;SDS011;5972;42.134;24.718;2023-04-25T02:47:36;9.52;;;5.47;;
11829;SDS011;5972;42.134;24.718;2023-04-25T02:50:02;5.47;;;4.97;;
11829;SDS011;5972;42.134;24.718;2023-04-25T02:52:29;6.80;;;6.10;;
11829;SDS011;5972;42.134;24.718;2023-04-25T02:54:55;10.13;;;6.00;;
11829;SDS011;5972;42.134;24.718;2023-04-25T02:57:22;6.40;;;5.80;;
11829;SDS011;5972;42.134;24.718;2023-04-25T02:59:48;6.43;;;5.57;;
11829;SDS011;5972;42.134;24.718;2023-04-25T03:02:15;8.27;;;6.20;;
11829;SDS011;5972;42.134;24.718;2023-04-25T03:04:43;8.52;;;6.38;;
11829;SDS011;5972;42.134;24.718;2023-04-25T03:07:09;6.43;;;5.75;;
11829;SDS011;5972;42.134;24.718;2023-04-25T03:09:36;6.60;;;6.00;;
11829;SDS011;5972;42.134;24.718;2023-04-25T03:12:02;5.90;;;5.35;;
11829;SDS011;5972;42.134;24.718;2023-04-25T03:14:29;5.97;;;5.38;;
11829;SDS011;5972;42.134;24.718;2023-04-25T03:16:55;7.22;;;5.15;;
11829;SDS011;5972;42.134;24.718;2023-04-25T03:19:22;6.20;;;5.60;;
11829;SDS011;5972;42.134;24.718;2023-04-25T03:21:49;5.82;;;5.32;;
11829;SDS011;5972;42.134;24.718;2023-04-25T03:24:16;5.68;;;5.10;;
11829;SDS011;5972;42.134;24.718;2023-04-25T03:26:42;5.90;;;5.40;;
11829;SDS011;5972;42.134;24.718;2023-04-25T03:29:09;6.03;;;5.43;;
11829;SDS011;5972;42.134;24.718;2023-04-25T03:31:35;6.95;;;5.07;;
11829;SDS011;5972;42.134;24.718;2023-04-25T03:34:02;6.32;;;5.72;;
11829;SDS011;5972;42.134;24.718;2023-04-25T03:36:28;6.15;;;5.55;;
11829;SDS011;5972;42.134;24.718;2023-04-25T03:38:56;6.20;;;5.55;;
11829;SDS011;5972;42.134;24.718;2023-04-25T03:41:23;5.93;;;5.32;;
11829;SDS011;5972;42.134;24.718;2023-04-25T03:43:50;5.70;;;5.20;;
11829;SDS011;5972;42.134;24.718;2023-04-25T03:46:16;6.10;;;5.50;;
11829;SDS011;5972;42.134;24.718;2023-04-25T03:48:42;7.25;;;6.50;;
11829;SDS011;5972;42.134;24.718;2023-04-25T03:51:09;6.78;;;6.18;;
11829;SDS011;5972;42.134;24.718;2023-04-25T03:53:35;7.13;;;6.43;;
11829;SDS011;5972;42.134;24.718;2023-04-25T03:56:03;6.65;;;6.05;;
11829;SDS011;5972;42.134;24.718;2023-04-25T03:58:30;7.22;;;6.53;;
11829;SDS011;5972;42.134;24.718;2023-04-25T04:00:56;7.43;;;6.72;;
11829;SDS011;5972;42.134;24.718;2023-04-25T04:03:23;8.45;;;6.78;;
11829;SDS011;5972;42.134;24.718;2023-04-25T04:05:50;8.95;;;6.65;;
11829;SDS011;5972;42.134;24.718;2023-04-25T04:08:16;8.90;;;7.50;;
11829;SDS011;5972;42.134;24.718;2023-04-25T04:10:43;8.90;;;7.97;;
11829;SDS011;5972;42.134;24.718;2023-04-25T04:13:10;8.20;;;7.40;;
11829;SDS011;5972;42.134;24.718;2023-04-25T04:15:37;8.75;;;7.30;;
11829;SDS011;5972;42.134;24.718;2023-04-25T04:18:03;9.35;;;7.32;;
11829;SDS011;5972;42.134;24.718;2023-04-25T04:20:31;12.60;;;7.75;;
11829;SDS011;5972;42.134;24.718;2023-04-25T04:22:57;8.30;;;7.50;;
11829;SDS011;5972;42.134;24.718;2023-04-25T04:25:24;8.85;;;7.93;;
11829;SDS011;5972;42.134;24.718;2023-04-25T04:27:51;11.77;;;8.60;;
11829;SDS011;5972;42.134;24.718;2023-04-25T04:30:21;12.73;;;7.97;;
11829;SDS011;5972;42.134;24.718;2023-04-25T04:32:49;12.15;;;8.10;;
11829;SDS011;5972;42.134;24.718;2023-04-25T04:35:15;8.55;;;7.75;;
11829;SDS011;5972;42.134;24.718;2023-04-25T04:37:42;9.55;;;7.50;;
11829;SDS011;5972;42.134;24.718;2023-04-25T04:40:09;9.35;;;7.88;;
11829;SDS011;5972;42.134;24.718;2023-04-25T04:42:36;7.75;;;6.85;;
11829;SDS011;5972;42.134;24.718;2023-04-25T04:45:03;7.13;;;6.43;;
11829;SDS011;5972;42.134;24.718;2023-04-25T04:47:31;6.65;;;5.72;;
11829;SDS011;5972;42.134;24.718;2023-04-25T04:49:58;6.38;;;5.78;;
11829;SDS011;5972;42.134;24.718;2023-04-25T04:52:25;6.68;;;6.13;;
11829;SDS011;5972;42.134;24.718;2023-04-25T04:54:51;7.35;;;6.65;;
11829;SDS011;5972;42.134;24.718;2023-04-25T04:57:18;7.85;;;6.93;;
11829;SDS011;5972;42.134;24.718;2023-04-25T04:59:44;7.60;;;6.90;;
11829;SDS011;5972;42.134;24.718;2023-04-25T05:02:11;8.93;;;7.00;;
11829;SDS011;5972;42.134;24.718;2023-04-25T05:04:39;8.40;;;7.20;;
11829;SDS011;5972;42.134;24.718;2023-04-25T05:07:05;7.20;;;6.28;;
11829;SDS011;5972;42.134;24.718;2023-04-25T05:09:32;9.20;;;6.80;;
11829;SDS011;5972;42.134;24.718;2023-04-25T05:11:58;7.68;;;6.72;;
11829;SDS011;5972;42.134;24.718;2023-04-25T05:14:26;7.43;;;6.72;;
11829;SDS011;5972;42.134;24.718;2023-04-25T05:16:52;7.10;;;6.10;;
11829;SDS011;5972;42.134;24.718;2023-04-25T05:19:20;7.15;;;6.45;;
11829;SDS011;5972;42.134;24.718;2023-04-25T05:21:48;6.93;;;6.28;;
11829;SDS011;5972;42.134;24.718;2023-04-25T05:24:15;7.45;;;6.85;;
11829;SDS011;5972;42.134;24.718;2023-04-25T05:26:41;8.30;;;7.60;;
11829;SDS011;5972;42.134;24.718;2023-04-25T05:29:07;9.85;;;8.82;;
11829;SDS011;5972;42.134;24.718;2023-04-25T05:31:35;9.20;;;8.27;;
11829;SDS011;5972;42.134;24.718;2023-04-25T05:34:01;9.93;;;8.48;;
11829;SDS011;5972;42.134;24.718;2023-04-25T05:36:28;10.77;;;8.43;;
11829;SDS011;5972;42.134;24.718;2023-04-25T05:38:57;9.57;;;8.68;;
11829;SDS011;5972;42.134;24.718;2023-04-25T05:41:23;8.80;;;7.85;;
11829;SDS011;5972;42.134;24.718;2023-04-25T05:43:50;7.68;;;6.85;;
11829;SDS011;5972;42.134;24.718;2023-04-25T05:46:16;10.50;;;7.05;;
11829;SDS011;5972;42.134;24.718;2023-04-25T05:48:43;9.88;;;7.90;;
11829;SDS011;5972;42.134;24.718;2023-04-25T05:51:09;11.20;;;7.50;;
11829;SDS011;5972;42.134;24.718;2023-04-25T05:53:36;9.73;;;6.82;;
11829;SDS011;5972;42.134;24.718;2023-04-25T05:56:04;9.65;;;6.97;;
11829;SDS011;5972;42.134;24.718;2023-04-25T05:58:31;7.60;;;6.43;;
11829;SDS011;5972;42.134;24.718;2023-04-25T06:00:57;8.18;;;5.57;;
11829;SDS011;5972;42.134;24.718;2023-04-25T06:03:25;7.85;;;5.65;;
11829;SDS011;5972;42.134;24.718;2023-04-25T06:05:52;7.55;;;5.70;;
11829;SDS011;5972;42.134;24.718;2023-04-25T06:08:18;8.23;;;6.00;;
11829;SDS011;5972;42.134;24.718;2023-04-25T06:10:45;7.10;;;5.85;;
11829;SDS011;5972;42.134;24.718;2023-04-25T06:13:13;10.50;;;5.90;;
11829;SDS011;5972;42.134;24.718;2023-04-25T06:15:42;7.82;;;6.10;;
11829;SDS011;5972;42.134;24.718;2023-04-25T06:18:08;7.57;;;6.10;;
11829;SDS011;5972;42.134;24.718;2023-04-25T06:20:35;7.65;;;5.40;;
11829;SDS011;5972;42.134;24.718;2023-04-25T06:23:02;8.32;;;6.00;;
11829;SDS011;5972;42.134;24.718;2023-04-25T06:25:28;7.00;;;5.72;;
11829;SDS011;5972;42.134;24.718;2023-04-25T06:27:55;9.35;;;5.30;;
11829;SDS011;5972;42.134;24.718;2023-04-25T06:30:23;5.53;;;4.97;;
11829;SDS011;5972;42.134;24.718;2023-04-25T06:32:50;8.00;;;6.97;;
11829;SDS011;5972;42.134;24.718;2023-04-25T06:35:18;6.68;;;5.50;;
11829;SDS011;5972;42.134;24.718;2023-04-25T06:37:44;6.15;;;5.45;;
11829;SDS011;5972;42.134;24.718;2023-04-25T06:40:13;6.35;;;5.60;;
11829;SDS011;5972;42.134;24.718;2023-04-25T06:42:40;7.72;;;5.35;;
11829;SDS011;5972;42.134;24.718;2023-04-25T06:45:07;6.93;;;5.30;;
11829;SDS011;5972;42.134;24.718;2023-04-25T06:47:35;7.53;;;5.82;;
11829;SDS011;5972;42.134;24.718;2023-04-25T06:50:01;7.13;;;5.75;;
11829;SDS011;5972;42.134;24.718;2023-04-25T06:52:28;9.95;;;6.28;;
11829;SDS011;5972;42.134;24.718;2023-04-25T06:54:54;8.82;;;5.78;;
11829;SDS011;5972;42.134;24.718;2023-04-25T06:57:21;10.00;;;6.45;;
11829;SDS011;5972;42.134;24.718;2023-04-25T06:59:48;7.80;;;5.57;;
11829;SDS011;5972;42.134;24.718;2023-04-25T07:02:15;6.05;;;5.10;;
11829;SDS011;5972;42.134;24.718;2023-04-25T07:04:42;6.72;;;4.60;;
11829;SDS011;5972;42.134;24.718;2023-04-25T07:07:11;3.88;;;3.60;;
11829;SDS011;5972;42.134;24.718;2023-04-25T07:09:37;9.73;;;4.72;;
11829;SDS011;5972;42.134;24.718;2023-04-25T07:12:04;5.38;;;4.40;;
11829;SDS011;5972;42.134;24.718;2023-04-25T07:14:30;4.93;;;4.50;;
11829;SDS011;5972;42.134;24.718;2023-04-25T07:16:57;7.28;;;4.10;;
11829;SDS011;5972;42.134;24.718;2023-04-25T07:19:23;4.47;;;3.97;;
11829;SDS011;5972;42.134;24.718;2023-04-25T07:21:53;4.35;;;3.95;;
11829;SDS011;5972;42.134;24.718;2023-04-25T07:24:19;4.93;;;4.22;;
11829;SDS011;5972;42.134;24.718;2023-04-25T07:26:46;5.53;;;3.53;;
11829;SDS011;5972;42.134;24.718;2023-04-25T07:29:12;8.45;;;3.90;;
11829;SDS011;5972;42.134;24.718;2023-04-25T07:31:39;4.20;;;3.72;;
11829;SDS011;5972;42.134;24.718;2023-04-25T07:34:05;4.53;;;4.13;;
11829;SDS011;5972;42.134;24.718;2023-04-25T07:36:32;8.00;;;3.80;;
11829;SDS011;5972;42.134;24.718;2023-04-25T07:39:00;4.82;;;3.38;;
11829;SDS011;5972;42.134;24.718;2023-04-25T07:41:26;6.20;;;3.40;;
11829;SDS011;5972;42.134;24.718;2023-04-25T07:43:52;4.40;;;3.30;;
11829;SDS011;5972;42.134;24.718;2023-04-25T07:46:19;4.57;;;3.38;;
11829;SDS011;5972;42.134;24.718;2023-04-25T07:48:45;3.63;;;3.10;;
11829;SDS011;5972;42.134;24.718;2023-04-25T07:51:12;3.65;;;3.20;;
11829;SDS011;5972;42.134;24.718;2023-04-25T07:53:38;3.72;;;3.00;;
11829;SDS011;5972;42.134;24.718;2023-04-25T07:56:07;5.03;;;3.70;;
11829;SDS011;5972;42.134;24.718;2023-04-25T07:58:34;7.80;;;3.20;;
11829;SDS011;5972;42.134;24.718;2023-04-25T08:01:00;5.38;;;3.38;;
11829;SDS011;5972;42.134;24.718;2023-04-25T08:03:27;4.57;;;3.15;;
11829;SDS011;5972;42.134;24.718;2023-04-25T08:05:53;2.97;;;2.78;;
11829;SDS011;5972;42.134;24.718;2023-04-25T08:08:20;3.97;;;3.05;;
11829;SDS011;5972;42.134;24.718;2023-04-25T08:10:47;3.28;;;2.65;;
11829;SDS011;5972;42.134;24.718;2023-04-25T08:13:15;3.17;;;2.60;;
11829;SDS011;5972;42.134;24.718;2023-04-25T08:15:42;4.57;;;2.78;;
11829;SDS011;5972;42.134;24.718;2023-04-25T08:18:08;3.00;;;2.60;;
11829;SDS011;5972;42.134;24.718;2023-04-25T08:20:35;2.65;;;2.45;;
11829;SDS011;5972;42.134;24.718;2023-04-25T08:23:01;2.50;;;2.30;;
11829;SDS011;5972;42.134;24.718;2023-04-25T08:25:29;4.32;;;2.30;;
11829;SDS011;5972;42.134;24.718;2023-04-25T08:27:55;2.80;;;2.35;;
11829;SDS011;5972;42.134;24.718;2023-04-25T08:30:23;2.50;;;2.30;;
11829;SDS011;5972;42.134;24.718;2023-04-25T08:32:50;5.28;;;2.50;;
11829;SDS011;5972;42.134;24.718;2023-04-25T08:35:16;2.40;;;2.20;;
11829;SDS011;5972;42.134;24.718;2023-04-25T08:37:43;3.10;;;2.17;;
11829;SDS011;5972;42.134;24.718;2023-04-25T08:40:11;2.78;;;1.88;;
11829;SDS011;5972;42.134;24.718;2023-04-25T08:42:38;5.22;;;2.35;;
11829;SDS011;5972;42.134;24.718;2023-04-25T08:45:08;2.55;;;2.35;;
11829;SDS011;5972;42.134;24.718;2023-04-25T08:47:37;2.72;;;2.50;;
11829;SDS011;5972;42.134;24.718;2023-04-25T08:50:04;4.15;;;2.30;;
11829;SDS011;5972;42.134;24.718;2023-04-25T08:52:34;2.80;;;2.50;;
11829;SDS011;5972;42.134;24.718;2023-04-25T08:55:02;2.35;;;2.15;;
11829;SDS011;5972;42.134;24.718;2023-04-25T09:00:41;2.53;;;2.30;;
11829;SDS011;5972;42.134;24.718;2023-04-25T09:03:11;3.03;;;2.83;;
11829;SDS011;5972;42.134;24.718;2023-04-25T09:05:39;2.97;;;2.78;;
11829;SDS011;5972;42.134;24.718;2023-04-25T09:08:06;4.03;;;2.60;;
11829;SDS011;5972;42.134;24.718;2023-04-25T09:10:37;4.88;;;3.03;;
11829;SDS011;5972;42.134;24.718;2023-04-25T09:13:05;3.60;;;2.63;;
11829;SDS011;5972;42.134;24.718;2023-04-25T09:15:31;5.72;;;2.67;;
11829;SDS011;5972;42.134;24.718;2023-04-25T09:17:58;4.25;;;3.50;;
11829;SDS011;5972;42.134;24.718;2023-04-25T09:20:32;4.53;;;3.10;;
11829;SDS011;5972;42.134;24.718;2023-04-25T09:23:07;11.38;;;3.20;;
11829;SDS011;5972;42.134;24.718;2023-04-25T09:25:34;4.53;;;2.53;;
11829;SDS011;5972;42.134;24.718;2023-04-25T09:28:03;3.65;;;3.08;;
11829;SDS011;5972;42.134;24.718;2023-04-25T09:30:30;3.95;;;3.63;;
11829;SDS011;5972;42.134;24.718;2023-04-25T09:32:59;4.18;;;3.80;;
11829;SDS011;5972;42.134;24.718;2023-04-25T09:35:37;6.50;;;3.65;;
11829;SDS011;5972;42.134;24.718;2023-04-25T09:38:10;4.82;;;3.95;;
11829;SDS011;5972;42.134;24.718;2023-04-25T09:40:40;4.15;;;3.80;;
11829;SDS011;5972;42.134;24.718;2023-04-25T09:43:10;6.40;;;3.58;;
11829;SDS011;5972;42.134;24.718;2023-04-25T09:45:45;4.47;;;3.63;;
11829;SDS011;5972;42.134;24.718;2023-04-25T09:48:17;5.13;;;3.42;;
11829;SDS011;5972;42.134;24.718;2023-04-25T09:50:46;4.85;;;4.40;;
11829;SDS011;5972;42.134;24.718;2023-04-25T09:53:29;5.00;;;4.60;;
11829;SDS011;5972;42.134;24.718;2023-04-25T09:55:57;4.47;;;4.07;;
11829;SDS011;5972;42.134;24.718;2023-04-25T09:58:26;6.40;;;3.75;;
11829;SDS011;5972;42.134;24.718;2023-04-25T10:00:59;7.15;;;3.45;;
11829;SDS011;5972;42.134;24.718;2023-04-25T10:03:29;4.90;;;3.45;;
11829;SDS011;5972;42.134;24.718;2023-04-25T10:06:00;3.38;;;3.08;;
11829;SDS011;5972;42.134;24.718;2023-04-25T10:08:29;3.47;;;2.72;;
11829;SDS011;5972;42.134;24.718;2023-04-25T10:10:59;3.10;;;2.90;;
11829;SDS011;5972;42.134;24.718;2023-04-25T10:13:26;5.80;;;2.80;;
11829;SDS011;5972;42.134;24.718;2023-04-25T10:15:53;3.05;;;2.75;;
11829;SDS011;5972;42.134;24.718;2023-04-25T10:18:20;3.85;;;2.70;;
11829;SDS011;5972;42.134;24.718;2023-04-25T10:20:47;4.70;;;2.70;;
11829;SDS011;5972;42.134;24.718;2023-04-25T10:23:15;4.95;;;2.35;;
11829;SDS011;5972;42.134;24.718;2023-04-25T10:25:42;2.65;;;2.45;;
11829;SDS011;5972;42.134;24.718;2023-04-25T10:28:13;3.42;;;2.33;;
11829;SDS011;5972;42.134;24.718;2023-04-25T10:30:53;2.05;;;1.95;;
11829;SDS011;5972;42.134;24.718;2023-04-25T10:33:28;5.03;;;2.30;;
11829;SDS011;5972;42.134;24.718;2023-04-25T10:35:57;2.72;;;2.42;;
11829;SDS011;5972;42.134;24.718;2023-04-25T10:38:28;2.33;;;2.10;;
11829;SDS011;5972;42.134;24.718;2023-04-25T10:41:02;5.97;;;2.35;;
11829;SDS011;5972;42.134;24.718;2023-04-25T10:43:33;3.80;;;2.50;;
11829;SDS011;5972;42.134;24.718;2023-04-25T10:46:00;4.43;;;2.40;;
11829;SDS011;5972;42.134;24.718;2023-04-25T10:48:27;1.80;;;1.70;;
11829;SDS011;5972;42.134;24.718;2023-04-25T10:51:06;4.25;;;1.80;;
11829;SDS011;5972;42.134;24.718;2023-04-25T10:53:37;3.10;;;2.03;;
11829;SDS011;5972;42.134;24.718;2023-04-25T10:56:16;1.92;;;1.67;;
11829;SDS011;5972;42.134;24.718;2023-04-25T10:58:43;6.47;;;1.80;;
11829;SDS011;5972;42.134;24.718;2023-04-25T11:01:13;4.93;;;1.98;;
11829;SDS011;5972;42.134;24.718;2023-04-25T11:03:40;2.20;;;2.00;;
11829;SDS011;5972;42.134;24.718;2023-04-25T11:06:09;3.90;;;2.30;;
11829;SDS011;5972;42.134;24.718;2023-04-25T11:08:41;3.03;;;1.90;;
11829;SDS011;5972;42.134;24.718;2023-04-25T11:11:13;3.80;;;1.80;;
11829;SDS011;5972;42.134;24.718;2023-04-25T11:13:40;2.90;;;1.80;;
11829;SDS011;5972;42.134;24.718;2023-04-25T11:16:07;3.45;;;1.85;;
11829;SDS011;5972;42.134;24.718;2023-04-25T11:18:40;3.72;;;1.90;;
11829;SDS011;5972;42.134;24.718;2023-04-25T11:21:06;3.42;;;1.70;;
11829;SDS011;5972;42.134;24.718;2023-04-25T11:23:35;3.03;;;2.05;;
11829;SDS011;5972;42.134;24.718;2023-04-25T11:26:10;4.43;;;1.58;;
11829;SDS011;5972;42.134;24.718;2023-04-25T11:28:38;2.85;;;1.52;;
11829;SDS011;5972;42.134;24.718;2023-04-25T11:31:05;1.75;;;1.50;;
11829;SDS011;5972;42.134;24.718;2023-04-25T11:33:35;1.92;;;1.45;;
11829;SDS011;5972;42.134;24.718;2023-04-25T11:36:02;1.58;;;1.48;;
11829;SDS011;5972;42.134;24.718;2023-04-25T11:38:28;2.05;;;1.60;;
11829;SDS011;5972;42.134;24.718;2023-04-25T11:40:55;4.55;;;1.50;;
11829;SDS011;5972;42.134;24.718;2023-04-25T11:43:23;1.70;;;1.60;;
11829;SDS011;5972;42.134;24.718;2023-04-25T11:45:49;1.98;;;1.77;;
11829;SDS011;5972;42.134;24.718;2023-04-25T11:48:18;4.57;;;1.70;;
11829;SDS011;5972;42.134;24.718;2023-04-25T11:50:46;2.13;;;1.70;;
11829;SDS011;5972;42.134;24.718;2023-04-25T11:53:13;2.05;;;1.67;;
11829;SDS011;5972;42.134;24.718;2023-04-25T11:55:39;3.08;;;2.67;;
11829;SDS011;5972;42.134;24.718;2023-04-25T11:58:06;5.10;;;2.72;;
11829;SDS011;5972;42.134;24.718;2023-04-25T12:00:35;3.47;;;2.80;;
11829;SDS011;5972;42.134;24.718;2023-04-25T12:03:01;3.97;;;2.78;;
11829;SDS011;5972;42.134;24.718;2023-04-25T12:05:28;3.70;;;2.80;;
11829;SDS011;5972;42.134;24.718;2023-04-25T12:07:55;3.50;;;2.72;;
11829;SDS011;5972;42.134;24.718;2023-04-25T12:10:23;4.78;;;2.83;;
11829;SDS011;5972;42.134;24.718;2023-04-25T12:12:50;4.63;;;2.80;;
11829;SDS011;5972;42.134;24.718;2023-04-25T12:15:18;2.90;;;2.55;;
11829;SDS011;5972;42.134;24.718;2023-04-25T12:17:46;2.83;;;2.53;;
11829;SDS011;5972;42.134;24.718;2023-04-25T12:20:14;8.07;;;2.83;;
11829;SDS011;5972;42.134;24.718;2023-04-25T12:22:40;4.13;;;2.80;;
11829;SDS011;5972;42.134;24.718;2023-04-25T12:25:09;3.88;;;2.80;;
11829;SDS011;5972;42.134;24.718;2023-04-25T12:27:36;2.60;;;2.40;;
11829;SDS011;5972;42.134;24.718;2023-04-25T12:30:03;5.90;;;2.50;;
11829;SDS011;5972;42.134;24.718;2023-04-25T12:32:30;5.28;;;2.50;;
11829;SDS011;5972;42.134;24.718;2023-04-25T12:34:58;3.13;;;2.50;;
11829;SDS011;5972;42.134;24.718;2023-04-25T12:37:24;5.13;;;2.80;;
11829;SDS011;5972;42.134;24.718;2023-04-25T12:39:51;4.85;;;2.67;;
11829;SDS011;5972;42.134;24.718;2023-04-25T12:42:17;5.20;;;2.70;;
11829;SDS011;5972;42.134;24.718;2023-04-25T12:44:44;2.88;;;2.55;;
11829;SDS011;5972;42.134;24.718;2023-04-25T12:47:12;5.53;;;2.70;;
11829;SDS011;5972;42.134;24.718;2023-04-25T12:49:38;8.63;;;2.88;;
11829;SDS011;5972;42.134;24.718;2023-04-25T12:52:06;4.10;;;2.90;;
11829;SDS011;5972;42.134;24.718;2023-04-25T12:54:33;3.28;;;2.95;;
11829;SDS011;5972;42.134;24.718;2023-04-25T12:57:00;3.20;;;2.90;;
11829;SDS011;5972;42.134;24.718;2023-04-25T12:59:27;4.30;;;2.60;;
11829;SDS011;5972;42.134;24.718;2023-04-25T13:01:54;4.97;;;2.85;;
11829;SDS011;5972;42.134;24.718;2023-04-25T13:04:20;5.82;;;3.08;;
11829;SDS011;5972;42.134;24.718;2023-04-25T13:06:47;3.15;;;2.50;;
11829;SDS011;5972;42.134;24.718;2023-04-25T13:09:15;3.03;;;2.38;;
11829;SDS011;5972;42.134;24.718;2023-04-25T13:11:41;3.58;;;2.53;;
11829;SDS011;5972;42.134;24.718;2023-04-25T13:14:08;2.03;;;1.83;;
11829;SDS011;5972;42.134;24.718;2023-04-25T13:16:35;2.03;;;1.73;;
11829;SDS011;5972;42.134;24.718;2023-04-25T13:19:01;4.00;;;1.80;;
11829;SDS011;5972;42.134;24.718;2023-04-25T13:21:29;2.13;;;1.63;;
11829;SDS011;5972;42.134;24.718;2023-04-25T13:23:56;5.47;;;1.90;;
11829;SDS011;5972;42.134;24.718;2023-04-25T13:26:25;1.75;;;1.65;;
11829;SDS011;5972;42.134;24.718;2023-04-25T13:28:52;6.18;;;1.58;;
11829;SDS011;5972;42.134;24.718;2023-04-25T13:31:18;2.88;;;1.20;;
11829;SDS011;5972;42.134;24.718;2023-04-25T13:33:45;2.53;;;1.10;;
11829;SDS011;5972;42.134;24.718;2023-04-25T13:36:11;2.97;;;1.52;;
11829;SDS011;5972;42.134;24.718;2023-04-25T13:38:37;4.07;;;1.20;;
11829;SDS011;5972;42.134;24.718;2023-04-25T13:41:04;1.77;;;1.40;;
11829;SDS011;5972;42.134;24.718;2023-04-25T13:43:33;2.10;;;1.30;;
11829;SDS011;5972;42.134;24.718;2023-04-25T13:46:00;3.42;;;1.20;;
11829;SDS011;5972;42.134;24.718;2023-04-25T13:48:26;4.38;;;1.23;;
11829;SDS011;5972;42.134;24.718;2023-04-25T13:50:53;1.00;;;1.00;;
11829;SDS011;5972;42.134;24.718;2023-04-25T13:53:22;0.80;;;0.80;;
11829;SDS011;5972;42.134;24.718;2023-04-25T13:55:48;3.38;;;1.08;;
11829;SDS011;5972;42.134;24.718;2023-04-25T13:58:15;1.92;;;1.10;;
11829;SDS011;5972;42.134;24.718;2023-04-25T14:00:43;1.70;;;1.60;;
11829;SDS011;5972;42.134;24.718;2023-04-25T14:03:11;1.45;;;1.35;;
11829;SDS011;5972;42.134;24.718;2023-04-25T14:05:37;2.65;;;1.40;;
11829;SDS011;5972;42.134;24.718;2023-04-25T14:08:05;9.43;;;1.58;;
11829;SDS011;5972;42.134;24.718;2023-04-25T14:10:32;3.92;;;1.30;;
11829;SDS011;5972;42.134;24.718;2023-04-25T14:12:58;1.35;;;1.25;;
11829;SDS011;5972;42.134;24.718;2023-04-25T14:15:25;6.38;;;1.40;;
11829;SDS011;5972;42.134;24.718;2023-04-25T14:17:53;1.33;;;1.20;;
11829;SDS011;5972;42.134;24.718;2023-04-25T14:20:20;3.85;;;1.45;;
11829;SDS011;5972;42.134;24.718;2023-04-25T14:22:48;10.07;;;1.75;;
11829;SDS011;5972;42.134;24.718;2023-04-25T14:25:15;3.70;;;1.80;;
11829;SDS011;5972;42.134;24.718;2023-04-25T14:27:41;2.53;;;1.38;;
11829;SDS011;5972;42.134;24.718;2023-04-25T14:30:09;7.00;;;1.55;;
11829;SDS011;5972;42.134;24.718;2023-04-25T14:32:36;6.03;;;1.58;;
11829;SDS011;5972;42.134;24.718;2023-04-25T14:35:05;3.40;;;1.77;;
11829;SDS011;5972;42.134;24.718;2023-04-25T14:37:32;4.32;;;1.35;;
11829;SDS011;5972;42.134;24.718;2023-04-25T14:39:58;2.38;;;1.40;;
11829;SDS011;5972;42.134;24.718;2023-04-25T14:42:25;3.17;;;1.60;;
11829;SDS011;5972;42.134;24.718;2023-04-25T14:44:51;4.07;;;1.65;;
11829;SDS011;5972;42.134;24.718;2023-04-25T14:47:18;1.63;;;1.50;;
11829;SDS011;5972;42.134;24.718;2023-04-25T14:49:44;3.50;;;1.50;;
11829;SDS011;5972;42.134;24.718;2023-04-25T14:52:17;2.55;;;1.73;;